createdAt,value
2017-02-19T00:00:04.907Z,94.79
2017-02-19T00:01:05.594Z,94.79
2017-02-19T00:02:06.310Z,94.7
2017-02-19T00:03:07.019Z,94.98
2017-02-19T00:04:07.734Z,95.07
2017-02-19T00:05:08.465Z,94.42
2017-02-19T00:06:09.181Z,94.7
2017-02-19T00:07:09.854Z,94.98
2017-02-19T00:08:10.562Z,94.98
2017-02-19T00:09:11.269Z,94.89
2017-02-19T00:10:11.951Z,94.7
2017-02-19T00:11:12.655Z,94.7
2017-02-19T00:12:13.350Z,94.6
2017-02-19T00:13:14.048Z,94.79
2017-02-19T00:14:14.745Z,94.79
2017-02-19T00:15:15.437Z,94.98
2017-02-19T00:16:16.223Z,94.79
2017-02-19T00:17:16.924Z,94.79
2017-02-19T00:18:17.633Z,94.89
2017-02-19T00:19:18.341Z,94.98
2017-02-19T00:20:19.038Z,94.6
2017-02-19T00:21:19.753Z,94.51
2017-02-19T00:22:20.452Z,94.03
2017-02-19T00:23:21.134Z,93.84
2017-02-19T00:24:21.840Z,94.23
2017-02-19T00:25:22.562Z,93.94
2017-02-19T00:26:23.252Z,94.89
2017-02-19T00:27:23.998Z,94.42
2017-02-19T00:28:24.671Z,94.13
2017-02-19T00:29:25.477Z,93.84
2017-02-19T00:30:26.183Z,93.56
2017-02-19T00:31:27.073Z,93.75
2017-02-19T00:32:27.791Z,93.75
2017-02-19T00:33:28.498Z,93.18
2017-02-19T00:34:29.165Z,93.27
2017-02-19T00:35:29.871Z,93.37
2017-02-19T00:36:30.594Z,93.18
2017-02-19T00:37:31.328Z,93.27
2017-02-19T00:38:32.042Z,93.18
2017-02-19T00:39:32.734Z,93.65
2017-02-19T00:40:33.439Z,93.27
2017-02-19T00:41:34.127Z,93.46
2017-02-19T00:42:34.816Z,92.9
2017-02-19T00:43:35.542Z,92.71
2017-02-19T00:44:36.220Z,92.8
2017-02-19T00:45:36.917Z,93.46
2017-02-19T00:46:37.589Z,93.18
2017-02-19T00:47:38.266Z,92.99
2017-02-19T00:48:38.969Z,93.37
2017-02-19T00:49:39.663Z,93.08
2017-02-19T00:50:40.347Z,93.27
2017-02-19T00:51:41.015Z,93.27
2017-02-19T00:52:41.713Z,93.18
2017-02-19T00:53:42.420Z,93.18
2017-02-19T00:54:43.136Z,93.18
2017-02-19T00:55:43.843Z,93.08
2017-02-19T00:56:44.539Z,93.46
2017-02-19T00:57:45.210Z,93.46
2017-02-19T00:58:45.915Z,93.75
2017-02-19T00:59:46.625Z,93.75
2017-02-19T01:00:47.316Z,94.03
2017-02-19T01:01:48.035Z,94.03
2017-02-19T01:02:48.718Z,93.84
2017-02-19T01:03:49.448Z,93.37
2017-02-19T01:04:50.162Z,93.75
2017-02-19T01:05:50.838Z,94.23
2017-02-19T01:06:51.534Z,93.84
2017-02-19T01:07:52.235Z,93.75
2017-02-19T01:08:52.932Z,93.75
2017-02-19T01:09:53.649Z,93.65
2017-02-19T01:10:54.335Z,93.84
2017-02-19T01:11:55.099Z,93.84
2017-02-19T01:12:55.792Z,93.75
2017-02-19T01:13:56.471Z,93.84
2017-02-19T01:14:57.153Z,93.94
2017-02-19T01:15:57.841Z,93.84
2017-02-19T01:16:58.472Z,93.75
2017-02-19T01:17:59.131Z,93.65
2017-02-19T01:18:59.824Z,93.94
2017-02-19T01:20:00.521Z,93.75
2017-02-19T01:21:01.234Z,93.94
2017-02-19T01:22:01.948Z,93.65
2017-02-19T01:23:02.628Z,94.32
2017-02-19T01:24:03.327Z,93.84
2017-02-19T01:25:04.048Z,93.94
2017-02-19T01:26:04.749Z,93.94
2017-02-19T01:27:05.467Z,93.84
2017-02-19T01:28:06.168Z,93.65
2017-02-19T01:29:06.863Z,93.08
2017-02-19T01:30:07.570Z,94.03
2017-02-19T01:31:08.334Z,93.94
2017-02-19T01:32:08.991Z,93.7
2017-02-19T01:33:09.708Z,94.27
2017-02-19T01:34:10.408Z,93.7
2017-02-19T01:35:11.102Z,93.99
2017-02-19T01:36:11.812Z,93.65
2017-02-19T01:37:12.496Z,93.41
2017-02-19T01:38:13.218Z,93.32
2017-02-19T01:39:13.896Z,93.7
2017-02-19T01:40:14.605Z,93.75
2017-02-19T01:41:15.284Z,93.7
2017-02-19T01:42:15.985Z,93.51
2017-02-19T01:43:16.687Z,93.56
2017-02-19T01:44:17.375Z,93.04
2017-02-19T01:45:18.116Z,93.08
2017-02-19T01:46:18.811Z,93.27
2017-02-19T01:47:19.503Z,93.46
2017-02-19T01:48:20.196Z,93.56
2017-02-19T01:49:20.868Z,93.23
2017-02-19T01:50:21.561Z,93.41
2017-02-19T01:51:22.247Z,93.27
2017-02-19T01:52:22.937Z,93.04
2017-02-19T01:53:23.624Z,93.04
2017-02-19T01:54:24.317Z,93.27
2017-02-19T01:55:24.988Z,93.08
2017-02-19T01:56:25.660Z,93.13
2017-02-19T01:57:26.339Z,93.32
2017-02-19T01:58:27.023Z,93.32
2017-02-19T01:59:27.726Z,93.32
2017-02-19T02:00:28.393Z,93.13
2017-02-19T02:01:29.072Z,93.32
2017-02-19T02:02:29.759Z,93.32
2017-02-19T02:03:30.426Z,93.51
2017-02-19T02:04:31.122Z,93.32
2017-02-19T02:05:31.809Z,93.32
2017-02-19T02:06:32.517Z,93.23
2017-02-19T02:07:33.227Z,92.57
2017-02-19T02:08:33.922Z,93.41
2017-02-19T02:09:34.629Z,93.13
2017-02-19T02:10:35.317Z,93.18
2017-02-19T02:11:36.002Z,93.23
2017-02-19T02:12:36.692Z,93.32
2017-02-19T02:13:37.414Z,92.76
2017-02-19T02:14:38.128Z,93.04
2017-02-19T02:15:38.804Z,92.71
2017-02-19T02:16:39.511Z,92.8
2017-02-19T02:17:40.198Z,92.9
2017-02-19T02:18:40.863Z,93.41
2017-02-19T02:19:41.527Z,93.13
2017-02-19T02:20:42.199Z,92.66
2017-02-19T02:21:42.932Z,93.51
2017-02-19T02:22:43.599Z,93.27
2017-02-19T02:23:44.265Z,93.41
2017-02-19T02:24:44.977Z,93.51
2017-02-19T02:25:45.618Z,93.23
2017-02-19T02:26:46.309Z,93.41
2017-02-19T02:27:47.018Z,93.23
2017-02-19T02:28:47.724Z,93.23
2017-02-19T02:29:48.427Z,93.18
2017-02-19T02:30:49.131Z,92.94
2017-02-19T02:31:49.815Z,93.23
2017-02-19T02:32:50.480Z,93.23
2017-02-19T02:33:51.212Z,93.41
2017-02-19T02:34:51.889Z,93.04
2017-02-19T02:35:52.604Z,92.94
2017-02-19T02:36:53.281Z,92.94
2017-02-19T02:37:53.986Z,93.41
2017-02-19T02:38:54.678Z,93.41
2017-02-19T02:39:55.372Z,93.23
2017-02-19T02:40:56.067Z,92.85
2017-02-19T02:41:56.767Z,92.66
2017-02-19T02:42:57.485Z,92.42
2017-02-19T02:43:58.187Z,92.61
2017-02-19T02:44:58.894Z,92.57
2017-02-19T02:45:59.585Z,92.9
2017-02-19T02:47:00.306Z,93.32
2017-02-19T02:48:01.004Z,92.57
2017-02-19T02:49:01.704Z,92.76
2017-02-19T02:50:02.398Z,92.47
2017-02-19T02:51:03.080Z,92.47
2017-02-19T02:52:03.776Z,92.94
2017-02-19T02:53:04.483Z,92.47
2017-02-19T02:54:05.179Z,92.71
2017-02-19T02:55:05.877Z,92.76
2017-02-19T02:56:06.586Z,92.85
2017-02-19T02:57:07.283Z,92.76
2017-02-19T02:58:07.968Z,92.28
2017-02-19T02:59:08.689Z,92.38
2017-02-19T03:00:09.417Z,92.09
2017-02-19T03:01:10.113Z,92.66
2017-02-19T03:02:10.824Z,92.57
2017-02-19T03:03:11.507Z,92.57
2017-02-19T03:04:12.208Z,92.57
2017-02-19T03:05:12.929Z,92.47
2017-02-19T03:06:13.625Z,92.47
2017-02-19T03:07:14.356Z,92.38
2017-02-19T03:08:15.043Z,92.47
2017-02-19T03:09:15.740Z,92.47
2017-02-19T03:10:16.449Z,92.57
2017-02-19T03:11:17.126Z,92.38
2017-02-19T03:12:17.824Z,92.47
2017-02-19T03:13:18.514Z,92.57
2017-02-19T03:14:19.213Z,92.28
2017-02-19T03:15:19.931Z,92.38
2017-02-19T03:16:20.607Z,92.38
2017-02-19T03:17:21.302Z,92.28
2017-02-19T03:18:22.014Z,92.57
2017-02-19T03:19:22.723Z,92.28
2017-02-19T03:20:23.419Z,92.28
2017-02-19T03:21:24.120Z,92.28
2017-02-19T03:22:24.805Z,91.61
2017-02-19T03:23:25.515Z,91.99
2017-02-19T03:24:26.210Z,92.09
2017-02-19T03:25:26.906Z,91.8
2017-02-19T03:26:27.586Z,91.99
2017-02-19T03:27:28.305Z,91.8
2017-02-19T03:28:29.030Z,91.71
2017-02-19T03:29:29.732Z,91.8
2017-02-19T03:30:30.425Z,91.99
2017-02-19T03:31:31.126Z,92.09
2017-02-19T03:32:31.851Z,92.09
2017-02-19T03:33:32.541Z,91.8
2017-02-19T03:34:33.252Z,91.42
2017-02-19T03:35:33.964Z,91.33
2017-02-19T03:36:34.658Z,91.52
2017-02-19T03:37:35.362Z,91.42
2017-02-19T03:38:36.060Z,91.24
2017-02-19T03:39:36.749Z,91.9
2017-02-19T03:40:37.430Z,91.47
2017-02-19T03:41:38.128Z,91.52
2017-02-19T03:42:38.799Z,91.42
2017-02-19T03:43:39.496Z,91.75
2017-02-19T03:44:40.188Z,91
2017-02-19T03:45:40.888Z,90.52
2017-02-19T03:46:41.585Z,91.24
2017-02-19T03:47:42.267Z,91.28
2017-02-19T03:48:42.976Z,91.09
2017-02-19T03:49:43.661Z,91.47
2017-02-19T03:50:44.349Z,91.19
2017-02-19T03:51:45.059Z,91.09
2017-02-19T03:52:45.748Z,91.28
2017-02-19T03:53:46.445Z,91.09
2017-02-19T03:54:47.141Z,91.19
2017-02-19T03:55:47.833Z,91.19
2017-02-19T03:56:48.535Z,91
2017-02-19T03:57:49.209Z,90.48
2017-02-19T03:58:49.915Z,90.38
2017-02-19T03:59:50.606Z,90.76
2017-02-19T04:00:51.292Z,90.48
2017-02-19T04:01:52.016Z,90.57
2017-02-19T04:02:52.707Z,90.57
2017-02-19T04:03:53.397Z,91.14
2017-02-19T04:04:54.077Z,90.67
2017-02-19T04:05:54.785Z,90.86
2017-02-19T04:06:55.495Z,90.95
2017-02-19T04:07:56.192Z,91.24
2017-02-19T04:08:56.879Z,91.24
2017-02-19T04:09:57.582Z,91.24
2017-02-19T04:10:58.279Z,90.57
2017-02-19T04:11:58.980Z,90.67
2017-02-19T04:12:59.707Z,90.76
2017-02-19T04:14:00.388Z,91.19
2017-02-19T04:15:01.096Z,91.28
2017-02-19T04:16:01.827Z,91.09
2017-02-19T04:17:02.524Z,91.05
2017-02-19T04:18:03.252Z,91.42
2017-02-19T04:19:03.943Z,91.24
2017-02-19T04:20:04.646Z,91.24
2017-02-19T04:21:05.359Z,91.24
2017-02-19T04:22:06.123Z,91.14
2017-02-19T04:23:06.831Z,91.28
2017-02-19T04:24:07.632Z,91.24
2017-02-19T04:25:08.327Z,91.14
2017-02-19T04:26:09.015Z,91.19
2017-02-19T04:27:09.735Z,91.28
2017-02-19T04:28:10.457Z,91.05
2017-02-19T04:29:11.152Z,91.24
2017-02-19T04:30:11.855Z,91.05
2017-02-19T04:31:12.555Z,91.09
2017-02-19T04:32:13.243Z,91.24
2017-02-19T04:33:13.916Z,90.95
2017-02-19T04:34:14.608Z,91.24
2017-02-19T04:35:15.336Z,91.33
2017-02-19T04:36:16.075Z,91.19
2017-02-19T04:37:16.796Z,91.19
2017-02-19T04:38:17.511Z,91.24
2017-02-19T04:39:18.282Z,91.42
2017-02-19T04:40:18.978Z,91.33
2017-02-19T04:41:19.674Z,91.24
2017-02-19T04:42:20.348Z,91.33
2017-02-19T04:43:21.052Z,91.14
2017-02-19T04:44:21.767Z,91.24
2017-02-19T04:45:22.482Z,90.38
2017-02-19T04:46:23.221Z,90.76
2017-02-19T04:47:23.967Z,90.48
2017-02-19T04:48:24.688Z,90.76
2017-02-19T04:49:25.360Z,91.14
2017-02-19T04:50:26.066Z,91.24
2017-02-19T04:51:26.753Z,91.14
2017-02-19T04:52:27.481Z,91.14
2017-02-19T04:53:28.175Z,91.42
2017-02-19T04:54:28.870Z,90.86
2017-02-19T04:55:29.587Z,91.24
2017-02-19T04:56:30.314Z,91.14
2017-02-19T04:57:31.051Z,91.52
2017-02-19T04:58:31.754Z,91.24
2017-02-19T04:59:32.475Z,91.33
2017-02-19T05:00:33.167Z,91.42
2017-02-19T05:01:33.856Z,91.42
2017-02-19T05:02:34.540Z,91.42
2017-02-19T05:03:35.239Z,91.61
2017-02-19T05:04:35.933Z,91.33
2017-02-19T05:05:36.644Z,91.71
2017-02-19T05:06:37.326Z,91.61
2017-02-19T05:07:38.062Z,92.09
2017-02-19T05:08:38.773Z,91.99
2017-02-19T05:09:39.474Z,92.09
2017-02-19T05:10:40.179Z,91.8
2017-02-19T05:11:40.872Z,91.8
2017-02-19T05:12:41.563Z,92.09
2017-02-19T05:13:42.287Z,92.18
2017-02-19T05:14:42.999Z,91.99
2017-02-19T05:15:43.684Z,91.8
2017-02-19T05:16:44.378Z,91.9
2017-02-19T05:17:45.065Z,92.09
2017-02-19T05:18:45.772Z,91.8
2017-02-19T05:19:46.475Z,91.9
2017-02-19T05:20:47.185Z,92.09
2017-02-19T05:21:47.927Z,91.9
2017-02-19T05:22:48.628Z,91.52
2017-02-19T05:23:49.327Z,91.8
2017-02-19T05:24:50.045Z,91.71
2017-02-19T05:25:50.732Z,92.09
2017-02-19T05:26:51.412Z,91.8
2017-02-19T05:27:52.099Z,91.9
2017-02-19T05:28:52.779Z,91.9
2017-02-19T05:29:53.476Z,91.99
2017-02-19T05:30:54.205Z,91.61
2017-02-19T05:31:54.875Z,91.9
2017-02-19T05:32:55.567Z,91.99
2017-02-19T05:33:56.298Z,92.09
2017-02-19T05:34:57.016Z,91.99
2017-02-19T05:35:57.725Z,92.57
2017-02-19T05:36:58.404Z,92.28
2017-02-19T05:37:59.114Z,92.47
2017-02-19T05:38:59.800Z,92.18
2017-02-19T05:40:00.523Z,92.09
2017-02-19T05:41:01.228Z,92.38
2017-02-19T05:42:01.911Z,92.38
2017-02-19T05:43:02.611Z,92.57
2017-02-19T05:44:03.292Z,92.38
2017-02-19T05:45:03.974Z,92.09
2017-02-19T05:46:04.666Z,92.38
2017-02-19T05:47:05.348Z,92.57
2017-02-19T05:48:06.037Z,92.66
2017-02-19T05:49:06.736Z,93.04
2017-02-19T05:50:07.437Z,92.57
2017-02-19T05:51:08.108Z,92.76
2017-02-19T05:52:08.804Z,92.94
2017-02-19T05:53:09.530Z,92.76
2017-02-19T05:54:10.231Z,92.66
2017-02-19T05:55:10.937Z,92.76
2017-02-19T05:56:11.648Z,93.41
2017-02-19T05:57:12.370Z,93.51
2017-02-19T05:58:13.095Z,93.23
2017-02-19T05:59:13.756Z,93.23
2017-02-19T06:00:14.444Z,92.57
2017-02-19T06:01:15.130Z,92.76
2017-02-19T06:02:15.832Z,92.57
2017-02-19T06:03:16.524Z,92.76
2017-02-19T06:04:17.230Z,92.76
2017-02-19T06:05:17.919Z,93.23
2017-02-19T06:06:18.600Z,93.23
2017-02-19T06:07:19.274Z,92.57
2017-02-19T06:08:19.975Z,92.76
2017-02-19T06:09:20.709Z,93.32
2017-02-19T06:10:21.400Z,93.23
2017-02-19T06:11:22.080Z,93.13
2017-02-19T06:12:22.782Z,92.66
2017-02-19T06:13:23.464Z,93.41
2017-02-19T06:14:24.155Z,92.85
2017-02-19T06:15:24.834Z,92.76
2017-02-19T06:16:25.531Z,93.23
2017-02-19T06:17:26.201Z,93.51
2017-02-19T06:18:26.875Z,93.23
2017-02-19T06:19:27.542Z,93.04
2017-02-19T06:20:28.230Z,93.13
2017-02-19T06:21:28.906Z,93.04
2017-02-19T06:22:29.640Z,92.94
2017-02-19T06:23:30.330Z,93.23
2017-02-19T06:24:31.038Z,93.32
2017-02-19T06:25:31.752Z,93.51
2017-02-19T06:26:32.438Z,93.23
2017-02-19T06:27:33.105Z,93.04
2017-02-19T06:28:33.812Z,93.32
2017-02-19T06:29:34.501Z,93.13
2017-02-19T06:30:35.190Z,93.23
2017-02-19T06:31:35.888Z,93.41
2017-02-19T06:32:36.563Z,93.13
2017-02-19T06:33:37.257Z,93.04
2017-02-19T06:34:37.936Z,93.13
2017-02-19T06:35:38.611Z,93.23
2017-02-19T06:36:39.297Z,93.51
2017-02-19T06:37:39.980Z,93.13
2017-02-19T06:38:40.679Z,93.23
2017-02-19T06:39:41.356Z,92.94
2017-02-19T06:40:42.037Z,93.32
2017-02-19T06:41:42.770Z,93.32
2017-02-19T06:42:43.472Z,93.61
2017-02-19T06:43:44.142Z,93.51
2017-02-19T06:44:44.823Z,94.18
2017-02-19T06:45:45.483Z,94.27
2017-02-19T06:46:46.187Z,93.61
2017-02-19T06:47:46.879Z,93.7
2017-02-19T06:48:47.582Z,93.7
2017-02-19T06:49:48.307Z,93.89
2017-02-19T06:50:49.012Z,93.7
2017-02-19T06:51:49.699Z,93.89
2017-02-19T06:52:50.403Z,93.7
2017-02-19T06:53:51.096Z,93.61
2017-02-19T06:54:51.801Z,93.99
2017-02-19T06:55:52.509Z,93.99
2017-02-19T06:56:53.214Z,93.89
2017-02-19T06:57:53.905Z,93.8
2017-02-19T06:58:54.582Z,93.89
2017-02-19T06:59:55.291Z,93.7
2017-02-19T07:00:55.977Z,93.61
2017-02-19T07:01:56.670Z,93.89
2017-02-19T07:02:57.372Z,93.7
2017-02-19T07:03:58.071Z,93.7
2017-02-19T07:04:58.774Z,93.89
2017-02-19T07:05:59.487Z,93.75
2017-02-19T07:07:00.200Z,93.7
2017-02-19T07:08:00.898Z,93.13
2017-02-19T07:09:01.600Z,92.94
2017-02-19T07:10:02.279Z,93.04
2017-02-19T07:11:02.977Z,93.37
2017-02-19T07:12:03.675Z,93.27
2017-02-19T07:13:04.382Z,93.37
2017-02-19T07:14:05.064Z,93.04
2017-02-19T07:15:05.752Z,93.46
2017-02-19T07:16:06.443Z,93.18
2017-02-19T07:17:07.158Z,93.27
2017-02-19T07:18:07.860Z,93.46
2017-02-19T07:19:08.539Z,93.56
2017-02-19T07:20:09.261Z,92.61
2017-02-19T07:21:09.972Z,92.8
2017-02-19T07:22:10.651Z,92.61
2017-02-19T07:23:11.372Z,92.8
2017-02-19T07:24:12.061Z,92.42
2017-02-19T07:25:12.764Z,92.71
2017-02-19T07:26:13.467Z,92.33
2017-02-19T07:27:14.181Z,92.14
2017-02-19T07:28:14.886Z,92.42
2017-02-19T07:29:15.602Z,92.42
2017-02-19T07:30:16.322Z,92.42
2017-02-19T07:31:17.029Z,92.61
2017-02-19T07:32:17.742Z,92.52
2017-02-19T07:33:18.440Z,92.33
2017-02-19T07:34:19.154Z,92.14
2017-02-19T07:35:19.875Z,92.9
2017-02-19T07:36:20.557Z,92.52
2017-02-19T07:37:21.279Z,92.42
2017-02-19T07:38:21.979Z,92.33
2017-02-19T07:39:22.681Z,92.42
2017-02-19T07:40:23.366Z,92.99
2017-02-19T07:41:24.056Z,92.14
2017-02-19T07:42:24.727Z,92.52
2017-02-19T07:43:25.402Z,91.85
2017-02-19T07:44:26.084Z,91.94
2017-02-19T07:45:26.777Z,92.04
2017-02-19T07:46:27.497Z,91.85
2017-02-19T07:47:28.195Z,91.56
2017-02-19T07:48:28.913Z,91.94
2017-02-19T07:49:29.600Z,91.94
2017-02-19T07:50:30.259Z,91.94
2017-02-19T07:51:30.970Z,91.94
2017-02-19T07:52:31.660Z,91.94
2017-02-19T07:53:32.363Z,91.47
2017-02-19T07:54:33.059Z,91.56
2017-02-19T07:55:33.763Z,92.04
2017-02-19T07:56:34.432Z,92.14
2017-02-19T07:57:35.103Z,91.66
2017-02-19T07:58:35.815Z,91.38
2017-02-19T07:59:36.529Z,91.56
2017-02-19T08:00:37.221Z,91.75
2017-02-19T08:01:37.898Z,91.38
2017-02-19T08:02:38.565Z,91.75
2017-02-19T08:03:39.262Z,91.56
2017-02-19T08:04:39.962Z,91.94
2017-02-19T08:05:40.664Z,92.04
2017-02-19T08:06:41.341Z,91.94
2017-02-19T08:07:42.050Z,91.28
2017-02-19T08:08:42.728Z,91.56
2017-02-19T08:09:43.429Z,91.38
2017-02-19T08:10:44.139Z,91.28
2017-02-19T08:11:44.854Z,91.47
2017-02-19T08:12:45.546Z,91.09
2017-02-19T08:13:46.269Z,91.09
2017-02-19T08:14:46.941Z,91.47
2017-02-19T08:15:47.646Z,91.47
2017-02-19T08:16:48.326Z,91.28
2017-02-19T08:17:49.024Z,91.38
2017-02-19T08:18:49.709Z,91.66
2017-02-19T08:19:50.389Z,91.56
2017-02-19T08:20:51.067Z,91.47
2017-02-19T08:21:51.744Z,91.47
2017-02-19T08:22:52.450Z,91.66
2017-02-19T08:23:53.134Z,91.66
2017-02-19T08:24:53.823Z,92.04
2017-02-19T08:25:54.503Z,91.47
2017-02-19T08:26:55.187Z,92.04
2017-02-19T08:27:55.883Z,92.33
2017-02-19T08:28:56.572Z,92.71
2017-02-19T08:29:57.252Z,92.8
2017-02-19T08:30:57.935Z,93.46
2017-02-19T08:31:58.640Z,93.65
2017-02-19T08:32:59.343Z,93.75
2017-02-19T08:34:00.027Z,93.75
2017-02-19T08:35:00.720Z,94.32
2017-02-19T08:36:01.418Z,94.6
2017-02-19T08:37:02.111Z,94.6
2017-02-19T08:38:02.807Z,94.89
2017-02-19T08:39:03.498Z,94.89
2017-02-19T08:40:04.168Z,95.55
2017-02-19T08:41:04.881Z,95.17
2017-02-19T08:42:05.559Z,95.36
2017-02-19T08:43:06.262Z,95.36
2017-02-19T08:44:06.980Z,95.07
2017-02-19T08:45:07.682Z,94.7
2017-02-19T08:46:08.377Z,95.74
2017-02-19T08:47:09.085Z,95.17
2017-02-19T08:48:09.781Z,95.27
2017-02-19T08:49:10.495Z,95.07
2017-02-19T08:50:11.263Z,95.27
2017-02-19T08:51:11.980Z,95.07
2017-02-19T08:52:12.667Z,95.27
2017-02-19T08:53:13.396Z,95.07
2017-02-19T08:54:14.113Z,94.79
2017-02-19T08:55:14.824Z,94.6
2017-02-19T08:56:15.519Z,94.6
2017-02-19T08:57:16.232Z,94.7
2017-02-19T08:58:16.929Z,94.7
2017-02-19T08:59:17.616Z,94.7
2017-02-19T09:00:18.330Z,94.32
2017-02-19T09:01:19.063Z,94.51
2017-02-19T09:02:19.800Z,94.23
2017-02-19T09:03:20.516Z,94.42
2017-02-19T09:04:21.243Z,94.32
2017-02-19T09:05:21.948Z,94.23
2017-02-19T09:06:22.684Z,94.13
2017-02-19T09:07:23.399Z,94.98
2017-02-19T09:08:24.124Z,95.07
2017-02-19T09:09:24.834Z,94.89
2017-02-19T09:10:25.574Z,94.79
2017-02-19T09:11:26.274Z,94.98
2017-02-19T09:12:26.984Z,95.74
2017-02-19T09:13:27.695Z,96.22
2017-02-19T09:14:28.388Z,96.41
2017-02-19T09:15:29.094Z,97.26
2017-02-19T09:16:29.790Z,97.45
2017-02-19T09:17:30.494Z,97.64
2017-02-19T09:18:31.210Z,98.59
2017-02-19T09:19:31.932Z,99.16
2017-02-19T09:20:32.655Z,99.54
2017-02-19T09:21:33.344Z,99.63
2017-02-19T09:22:34.025Z,99.44
2017-02-19T09:23:34.729Z,99.73
2017-02-19T09:24:35.449Z,99.99
2017-02-19T09:25:36.172Z,99.99
2017-02-19T09:26:36.877Z,99.99
2017-02-19T09:27:37.571Z,99.99
2017-02-19T09:28:38.274Z,99.99
2017-02-19T09:29:39.017Z,99.99
2017-02-19T09:30:39.745Z,99.99
2017-02-19T09:31:40.468Z,99.99
2017-02-19T09:32:41.157Z,99.99
2017-02-19T09:33:41.845Z,99.99
2017-02-19T09:34:42.535Z,99.99
2017-02-19T09:35:43.232Z,99.99
2017-02-19T09:36:43.910Z,99.99
2017-02-19T09:37:44.623Z,99.99
2017-02-19T09:38:45.325Z,99.99
2017-02-19T09:39:46.022Z,99.99
2017-02-19T09:40:46.727Z,99.99
2017-02-19T09:41:47.420Z,99.99
2017-02-19T09:42:48.152Z,99.99
2017-02-19T09:43:48.857Z,99.99
2017-02-19T09:44:49.540Z,99.99
2017-02-19T09:45:50.231Z,99.99
2017-02-19T09:46:50.924Z,99.99
2017-02-19T09:47:51.634Z,99.99
2017-02-19T09:48:52.324Z,99.99
2017-02-19T09:49:53.024Z,99.99
2017-02-19T09:50:53.730Z,99.99
2017-02-19T09:51:54.418Z,99.99
2017-02-19T09:52:55.119Z,99.99
2017-02-19T09:53:55.813Z,99.99
2017-02-19T09:54:56.504Z,99.99
2017-02-19T09:55:57.188Z,99.99
2017-02-19T09:56:57.893Z,99.99
2017-02-19T09:57:58.583Z,99.99
2017-02-19T09:58:59.263Z,99.99
2017-02-19T09:59:59.957Z,99.99
2017-02-19T10:01:00.653Z,99.99
2017-02-19T10:02:01.346Z,99.99
2017-02-19T10:03:02.052Z,99.99
2017-02-19T10:04:02.760Z,99.99
2017-02-19T10:05:03.469Z,99.99
2017-02-19T10:06:04.180Z,99.99
2017-02-19T10:07:04.878Z,99.99
2017-02-19T10:08:05.594Z,99.99
2017-02-19T10:09:06.310Z,99.99
2017-02-19T10:10:07.035Z,99.99
2017-02-19T10:11:07.752Z,99.99
2017-02-19T10:12:08.427Z,99.99
2017-02-19T10:13:09.127Z,99.99
2017-02-19T10:14:09.813Z,99.99
2017-02-19T10:15:10.520Z,99.99
2017-02-19T10:16:11.229Z,99.99
2017-02-19T10:17:11.919Z,99.99
2017-02-19T10:18:12.616Z,99.99
2017-02-19T10:19:13.308Z,99.99
2017-02-19T10:20:14.032Z,99.99
2017-02-19T10:21:14.728Z,99.99
2017-02-19T10:22:15.435Z,99.99
2017-02-19T10:23:16.125Z,99.99
2017-02-19T10:24:16.822Z,99.99
2017-02-19T10:25:17.529Z,99.99
2017-02-19T10:26:18.217Z,99.99
2017-02-19T10:27:18.929Z,99.99
2017-02-19T10:28:19.631Z,99.99
2017-02-19T10:29:20.347Z,99.99
2017-02-19T10:30:21.061Z,99.99
2017-02-19T10:31:21.764Z,99.99
2017-02-19T10:32:22.483Z,99.99
2017-02-19T10:33:23.193Z,99.99
2017-02-19T10:34:23.902Z,99.99
2017-02-19T10:35:24.597Z,99.99
2017-02-19T10:36:25.323Z,99.99
2017-02-19T10:37:26.055Z,99.99
2017-02-19T10:38:26.760Z,99.99
2017-02-19T10:39:27.446Z,99.99
2017-02-19T10:40:28.140Z,99.99
2017-02-19T10:41:28.844Z,99.99
2017-02-19T10:42:29.531Z,99.99
2017-02-19T10:43:30.225Z,99.99
2017-02-19T10:44:30.914Z,99.99
2017-02-19T10:45:31.599Z,99.99
2017-02-19T10:46:32.342Z,99.99
2017-02-19T10:47:33.080Z,99.99
2017-02-19T10:48:33.803Z,99.99
2017-02-19T10:49:34.549Z,99.99
2017-02-19T10:50:35.253Z,99.99
2017-02-19T10:51:35.938Z,99.99
2017-02-19T10:52:36.644Z,99.99
2017-02-19T10:53:37.359Z,99.99
2017-02-19T10:54:38.085Z,99.99
2017-02-19T10:55:38.802Z,99.99
2017-02-19T10:56:39.508Z,99.99
2017-02-19T10:57:40.204Z,99.99
2017-02-19T10:58:40.954Z,99.99
2017-02-19T10:59:41.653Z,99.99
2017-02-19T11:00:42.367Z,99.99
2017-02-19T11:01:43.056Z,99.99
2017-02-19T11:02:43.759Z,99.99
2017-02-19T11:03:44.452Z,99.99
2017-02-19T11:04:45.152Z,99.99
2017-02-19T11:05:45.845Z,99.99
2017-02-19T11:06:46.518Z,99.99
2017-02-19T11:07:47.246Z,99.99
2017-02-19T11:08:47.963Z,99.99
2017-02-19T11:09:48.640Z,99.99
2017-02-19T11:10:49.347Z,99.99
2017-02-19T11:11:50.040Z,99.99
2017-02-19T11:12:50.745Z,99.99
2017-02-19T11:13:51.442Z,99.99
2017-02-19T11:14:52.255Z,99.99
2017-02-19T11:15:52.975Z,99.99
2017-02-19T11:16:53.680Z,99.99
2017-02-19T11:17:54.423Z,99.99
2017-02-19T11:18:55.136Z,99.99
2017-02-19T11:19:55.851Z,99.99
2017-02-19T11:20:56.574Z,99.99
2017-02-19T11:21:57.282Z,99.99
2017-02-19T11:22:58.041Z,99.99
2017-02-19T11:23:58.740Z,99.99
2017-02-19T11:24:59.440Z,99.99
2017-02-19T11:26:00.196Z,99.99
2017-02-19T11:27:00.895Z,99.99
2017-02-19T11:28:01.636Z,99.99
2017-02-19T11:29:02.313Z,99.99
2017-02-19T11:30:03.025Z,99.99
2017-02-19T11:31:03.757Z,99.99
2017-02-19T11:32:04.524Z,99.99
2017-02-19T11:33:05.235Z,99.99
2017-02-19T11:34:05.957Z,99.99
2017-02-19T11:35:06.726Z,99.99
2017-02-19T11:36:07.493Z,99.99
2017-02-19T11:37:08.225Z,99.99
2017-02-19T11:38:08.974Z,99.99
2017-02-19T11:39:09.704Z,99.99
2017-02-19T11:40:10.466Z,99.99
2017-02-19T11:41:11.164Z,99.99
2017-02-19T11:42:11.896Z,99.99
2017-02-19T11:43:12.632Z,99.99
2017-02-19T11:44:13.366Z,99.99
2017-02-19T11:45:14.076Z,99.99
2017-02-19T11:46:14.804Z,99.99
2017-02-19T11:47:15.485Z,99.99
2017-02-19T11:48:16.183Z,99.99
2017-02-19T11:49:16.899Z,99.99
2017-02-19T11:50:17.611Z,99.99
2017-02-19T11:51:18.339Z,99.99
2017-02-19T11:52:19.036Z,99.99
2017-02-19T11:53:19.720Z,99.99
2017-02-19T11:54:20.420Z,99.99
2017-02-19T11:55:21.221Z,99.99
2017-02-19T11:56:21.913Z,99.99
2017-02-19T11:57:22.615Z,99.99
2017-02-19T11:58:23.331Z,99.99
2017-02-19T11:59:24.036Z,99.99
2017-02-19T12:00:24.762Z,99.99
2017-02-19T12:01:25.485Z,99.99
2017-02-19T12:02:26.233Z,99.99
2017-02-19T12:03:26.965Z,99.99
2017-02-19T12:04:27.658Z,99.99
2017-02-19T12:05:28.384Z,99.99
2017-02-19T12:06:29.076Z,99.99
2017-02-19T12:07:29.818Z,99.99
2017-02-19T12:08:30.531Z,99.99
2017-02-19T12:09:31.259Z,99.99
2017-02-19T12:10:31.955Z,99.99
2017-02-19T12:11:32.665Z,99.99
2017-02-19T12:12:33.369Z,99.99
2017-02-19T12:13:34.069Z,99.99
2017-02-19T12:14:34.742Z,99.99
2017-02-19T12:15:35.416Z,99.99
2017-02-19T12:16:36.091Z,99.99
2017-02-19T12:17:36.806Z,99.99
2017-02-19T12:18:37.539Z,99.99
2017-02-19T12:19:38.242Z,99.99
2017-02-19T12:20:38.968Z,99.99
2017-02-19T12:21:39.665Z,99.99
2017-02-19T12:22:40.389Z,99.99
2017-02-19T12:23:41.078Z,99.99
2017-02-19T12:24:41.784Z,99.99
2017-02-19T12:25:42.518Z,99.99
2017-02-19T12:26:43.330Z,99.99
2017-02-19T12:27:44.036Z,99.99
2017-02-19T12:28:44.724Z,99.99
2017-02-19T12:29:45.458Z,99.99
2017-02-19T12:30:46.182Z,99.99
2017-02-19T12:31:46.901Z,99.99
2017-02-19T12:32:47.613Z,99.99
2017-02-19T12:33:48.318Z,99.99
2017-02-19T12:34:49.050Z,99.99
2017-02-19T12:35:49.799Z,99.99
2017-02-19T12:36:50.548Z,99.99
2017-02-19T12:37:51.271Z,99.99
2017-02-19T12:38:51.966Z,99.99
2017-02-19T12:39:52.675Z,99.99
2017-02-19T12:40:53.395Z,99.99
2017-02-19T12:41:54.085Z,99.99
2017-02-19T12:42:54.832Z,99.99
2017-02-19T12:43:55.560Z,99.99
2017-02-19T12:44:56.285Z,99.99
2017-02-19T12:45:57.017Z,99.99
2017-02-19T12:46:57.740Z,99.99
2017-02-19T12:47:58.453Z,99.99
2017-02-19T12:48:59.177Z,99.99
2017-02-19T12:49:59.897Z,99.99
2017-02-19T12:51:00.592Z,99.99
2017-02-19T12:52:01.296Z,99.99
2017-02-19T12:53:02.145Z,99.99
2017-02-19T12:54:02.879Z,99.99
2017-02-19T12:55:03.607Z,99.99
2017-02-19T12:56:04.325Z,99.99
2017-02-19T12:57:05.038Z,99.99
2017-02-19T12:58:06.628Z,99.99
2017-02-19T12:59:07.326Z,99.99
2017-02-19T13:00:08.044Z,99.99
2017-02-19T13:01:08.770Z,99.99
2017-02-19T13:02:09.499Z,99.99
2017-02-19T13:03:10.203Z,99.99